Time;durP1;ratioP1;P1;durP2;ratioP2;P2;SDS_P1;SDS_P2;PMS_P1;PMS_P2;Temp;Humidity;BMP_temperature;BMP_pressure;BME280_temperature;BME280_humidity;BME280_pressure;Samples;Min_cycle;Max_cycle;Signal;HPM_P1;HPM_P2
2022/01/02 00:01:04;;;;;;;43.50;27.70;;;;;;;;;;5134062;27;20464;-71
2022/01/02 00:03:35;;;;;;;42.67;27.90;;;;;;;;;;5139922;27;20192;-71
2022/01/02 00:06:03;;;;;;;46.83;28.80;;;;;;;;;;5139424;27;20495;-71
2022/01/02 00:08:32;;;;;;;46.53;27.10;;;;;;;;;;5129477;27;20450;-70
2022/01/02 00:11:00;;;;;;;38.07;23.73;;;;;;;;;;5139659;27;20230;-71
2022/01/02 00:13:33;;;;;;;42.63;25.77;;;;;;;;;;5139421;27;20197;-71
2022/01/02 00:16:06;;;;;;;35.73;23.83;;;;;;;;;;5139619;27;20220;-71
2022/01/02 00:18:38;;;;;;;38.03;25.70;;;;;;;;;;5139078;27;20733;-71
2022/01/02 00:21:07;;;;;;;38.07;25.03;;;;;;;;;;5149588;27;20480;-70
2022/01/02 00:23:47;;;;;;;32.80;22.90;;;;;;;;;;5139924;27;20232;-71
2022/01/02 00:26:18;;;;;;;36.23;23.07;;;;;;;;;;5137500;27;20465;-71
2022/01/02 00:28:46;;;;;;;35.97;23.40;;;;;;;;;;5126209;27;20450;-71
2022/01/02 00:31:16;;;;;;;35.83;22.37;;;;;;;;;;5118371;28;20808;-70
2022/01/02 00:33:45;;;;;;;34.40;21.20;;;;;;;;;;5137842;27;20441;-71
2022/01/02 00:36:13;;;;;;;34.97;22.43;;;;;;;;;;5139291;27;20466;-71
2022/01/02 00:38:41;;;;;;;34.77;21.53;;;;;;;;;;5136450;27;20442;-71
2022/01/02 00:41:09;;;;;;;29.73;21.03;;;;;;;;;;5127509;27;20485;-71
2022/01/02 00:43:42;;;;;;;32.47;19.97;;;;;;;;;;5139264;27;20960;-71
2022/01/02 00:46:10;;;;;;;32.17;20.10;;;;;;;;;;5139101;27;20472;-71
2022/01/02 00:48:43;;;;;;;33.00;19.40;;;;;;;;;;5138719;27;20876;-70
2022/01/02 00:51:16;;;;;;;36.33;20.93;;;;;;;;;;5139001;27;20438;-70
2022/01/02 00:53:47;;;;;;;39.80;22.00;;;;;;;;;;5138620;27;20446;-71
2022/01/02 00:56:16;;;;;;;37.53;21.97;;;;;;;;;;5137865;27;20473;-71
2022/01/02 00:58:51;;;;;;;32.10;20.73;;;;;;;;;;5139340;27;20445;-70
2022/01/02 01:01:23;;;;;;;29.53;20.07;;;;;;;;;;5139183;27;20481;-71
2022/01/02 01:03:53;;;;;;;35.67;21.70;;;;;;;;;;5138589;27;20470;-71
2022/01/02 01:06:24;;;;;;;35.60;21.93;;;;;;;;;;5138963;27;20466;-70
2022/01/02 01:08:52;;;;;;;33.37;21.17;;;;;;;;;;5135300;27;20465;-70
2022/01/02 01:11:20;;;;;;;37.63;20.80;;;;;;;;;;5133826;27;20454;-71
2022/01/02 01:13:49;;;;;;;28.90;19.43;;;;;;;;;;5138996;27;20442;-71
2022/01/02 01:16:18;;;;;;;33.00;20.40;;;;;;;;;;5137573;27;20465;-71
2022/01/02 01:18:46;;;;;;;28.10;19.20;;;;;;;;;;5138381;27;20813;-70
2022/01/02 01:21:15;;;;;;;28.80;20.03;;;;;;;;;;5150788;27;20476;-70
2022/01/02 01:23:43;;;;;;;30.83;20.20;;;;;;;;;;5156998;27;20429;-71
2022/01/02 01:26:15;;;;;;;27.10;20.03;;;;;;;;;;5130409;27;20472;-70
2022/01/02 01:28:43;;;;;;;30.20;19.57;;;;;;;;;;5138732;28;20924;-71
2022/01/02 01:31:11;;;;;;;28.20;19.50;;;;;;;;;;5138387;28;20446;-71
2022/01/02 01:33:39;;;;;;;26.13;18.10;;;;;;;;;;5138579;28;20529;-71
2022/01/02 01:36:07;;;;;;;27.10;19.50;;;;;;;;;;5138547;28;20461;-70
2022/01/02 01:38:37;;;;;;;28.07;18.57;;;;;;;;;;5137315;28;20438;-71
2022/01/02 01:41:07;;;;;;;29.73;19.80;;;;;;;;;;5124198;27;20915;-71
2022/01/02 01:43:40;;;;;;;24.60;17.90;;;;;;;;;;5126349;28;20778;-70
2022/01/02 01:46:08;;;;;;;27.80;18.77;;;;;;;;;;5138391;28;20535;-70
2022/01/02 01:48:36;;;;;;;22.73;17.10;;;;;;;;;;5138157;28;20493;-71
2022/01/02 01:51:04;;;;;;;24.30;17.40;;;;;;;;;;5138103;28;20438;-72
2022/01/02 01:53:32;;;;;;;26.80;18.77;;;;;;;;;;5137990;28;20464;-70
2022/01/02 01:56:01;;;;;;;25.40;16.87;;;;;;;;;;5136195;28;20480;-71
2022/01/02 01:58:29;;;;;;;21.83;16.43;;;;;;;;;;5152262;27;20443;-71
2022/01/02 02:00:57;;;;;;;24.20;16.93;;;;;;;;;;5159041;27;20483;-70
2022/01/02 02:03:25;;;;;;;24.50;17.03;;;;;;;;;;5158804;27;20463;-70
2022/01/02 02:05:53;;;;;;;23.00;17.30;;;;;;;;;;5159203;27;20468;-70
2022/01/02 02:08:25;;;;;;;23.70;16.80;;;;;;;;;;5158635;27;20447;-70
2022/01/02 02:10:56;;;;;;;23.53;16.73;;;;;;;;;;5137721;27;20454;-70
2022/01/02 02:13:25;;;;;;;23.30;16.67;;;;;;;;;;5129313;28;20450;-71
2022/01/02 02:15:53;;;;;;;22.00;16.00;;;;;;;;;;5122275;27;20486;-71
2022/01/02 02:18:21;;;;;;;25.20;17.43;;;;;;;;;;5138121;28;20438;-71
2022/01/02 02:20:51;;;;;;;23.17;16.80;;;;;;;;;;5155605;27;20473;-71
2022/01/02 02:23:19;;;;;;;17.70;12.67;;;;;;;;;;5158812;27;20516;-71
2022/01/02 02:25:47;;;;;;;19.40;13.93;;;;;;;;;;5158714;27;20451;-71
2022/01/02 02:28:15;;;;;;;17.93;12.77;;;;;;;;;;5146531;27;20457;-71
2022/01/02 02:30:44;;;;;;;17.10;11.90;;;;;;;;;;5142055;27;20196;-71
2022/01/02 02:33:13;;;;;;;16.53;12.77;;;;;;;;;;5141557;27;20233;-70
2022/01/02 02:35:42;;;;;;;19.30;12.40;;;;;;;;;;5141645;27;20733;-68
2022/01/02 02:38:12;;;;;;;19.60;11.97;;;;;;;;;;5141720;27;20211;-68
2022/01/02 02:40:40;;;;;;;17.43;11.67;;;;;;;;;;5127350;27;20577;-68
2022/01/02 02:43:23;;;;;;;16.47;10.60;;;;;;;;;;5141642;27;20516;-67
2022/01/02 02:51:27;;;;;;;10.53;7.27;;;;;;;;;;5141041;27;20193;-68
2022/01/02 02:53:57;;;;;;;12.83;7.40;;;;;;;;;;5138932;27;20203;-68
2022/01/02 02:56:27;;;;;;;9.50;6.50;;;;;;;;;;5141154;27;20231;-68
2022/01/02 02:58:56;;;;;;;10.27;7.43;;;;;;;;;;5143820;27;20196;-68
2022/01/02 03:01:25;;;;;;;11.50;7.57;;;;;;;;;;5141430;27;20231;-67
2022/01/02 03:03:53;;;;;;;11.43;8.17;;;;;;;;;;5141033;27;20264;-68
2022/01/02 03:06:21;;;;;;;12.77;7.93;;;;;;;;;;5138905;27;20227;-68
2022/01/02 03:08:50;;;;;;;10.40;8.00;;;;;;;;;;5137231;27;20659;-67
2022/01/02 03:11:21;;;;;;;10.33;6.43;;;;;;;;;;5140278;27;20193;-67
2022/01/02 03:13:50;;;;;;;9.73;7.63;;;;;;;;;;5143433;27;20202;-67
2022/01/02 03:16:18;;;;;;;11.30;7.60;;;;;;;;;;5137124;27;20228;-67
2022/01/02 03:18:46;;;;;;;12.17;7.37;;;;;;;;;;5142916;27;20223;-67
2022/01/02 03:21:14;;;;;;;10.20;6.97;;;;;;;;;;5139400;27;20686;-67
2022/01/02 03:23:42;;;;;;;12.90;7.97;;;;;;;;;;5138390;27;20199;-67
2022/01/02 03:26:10;;;;;;;10.33;6.97;;;;;;;;;;5140107;27;20216;-67
2022/01/02 03:28:39;;;;;;;8.47;6.27;;;;;;;;;;5142296;27;20206;-68
2022/01/02 03:31:08;;;;;;;9.13;6.40;;;;;;;;;;5140281;27;20204;-67
2022/01/02 03:33:36;;;;;;;10.00;6.70;;;;;;;;;;5138331;27;20199;-67
2022/01/02 03:36:04;;;;;;;8.30;6.43;;;;;;;;;;5140412;27;20224;-67
2022/01/02 03:38:36;;;;;;;9.53;6.33;;;;;;;;;;5138613;27;20196;-67
2022/01/02 03:41:04;;;;;;;7.37;5.60;;;;;;;;;;5140921;27;20338;-67
2022/01/02 03:43:32;;;;;;;10.03;6.37;;;;;;;;;;5142142;27;20192;-67
2022/01/02 03:46:04;;;;;;;8.77;5.57;;;;;;;;;;5139068;27;20246;-67
2022/01/02 03:48:33;;;;;;;9.90;6.30;;;;;;;;;;5137307;27;20284;-67
2022/01/02 03:51:05;;;;;;;8.03;6.30;;;;;;;;;;5140946;27;20200;-68
2022/01/02 03:53:33;;;;;;;7.90;5.37;;;;;;;;;;5141587;27;20279;-68
2022/01/02 03:56:01;;;;;;;10.10;5.93;;;;;;;;;;5138942;27;20687;-68
2022/01/02 03:58:29;;;;;;;9.30;6.23;;;;;;;;;;5139845;27;20200;-68
2022/01/02 04:00:57;;;;;;;7.83;5.43;;;;;;;;;;5136864;27;20197;-69
2022/01/02 04:03:26;;;;;;;9.87;6.20;;;;;;;;;;5137221;27;20232;-69
2022/01/02 04:05:54;;;;;;;10.13;6.57;;;;;;;;;;5136179;27;20269;-68
2022/01/02 04:08:22;;;;;;;9.90;6.00;;;;;;;;;;5138375;27;20258;-67
2022/01/02 04:10:50;;;;;;;8.73;6.63;;;;;;;;;;5150537;27;20214;-67
2022/01/02 04:13:18;;;;;;;10.20;6.30;;;;;;;;;;5160785;27;20200;-67
2022/01/02 04:15:46;;;;;;;9.23;6.37;;;;;;;;;;5158272;27;20571;-67
2022/01/02 04:18:14;;;;;;;9.83;6.70;;;;;;;;;;5136575;27;20551;-67
2022/01/02 04:20:44;;;;;;;10.53;6.20;;;;;;;;;;5132313;27;20200;-68
2022/01/02 04:23:11;;;;;;;8.87;5.90;;;;;;;;;;5129374;27;20246;-68
2022/01/02 04:25:39;;;;;;;8.23;5.43;;;;;;;;;;5128898;27;20197;-68
2022/01/02 04:28:07;;;;;;;10.20;6.60;;;;;;;;;;5134388;27;20195;-68
2022/01/02 04:30:35;;;;;;;10.20;6.70;;;;;;;;;;5133950;27;20204;-68
2022/01/02 04:33:03;;;;;;;9.80;6.50;;;;;;;;;;5128296;27;20189;-68
2022/01/02 04:35:31;;;;;;;9.70;6.27;;;;;;;;;;5130037;27;20196;-68
2022/01/02 04:38:01;;;;;;;8.23;6.47;;;;;;;;;;5130439;27;20203;-68
2022/01/02 04:40:29;;;;;;;11.03;6.47;;;;;;;;;;5141587;27;20207;-68
2022/01/02 04:42:57;;;;;;;9.80;6.40;;;;;;;;;;5135753;27;20917;-68
2022/01/02 04:45:25;;;;;;;9.20;6.53;;;;;;;;;;5134672;27;20734;-68
2022/01/02 04:47:53;;;;;;;10.13;6.03;;;;;;;;;;5129090;27;20236;-68
2022/01/02 04:50:21;;;;;;;11.77;7.10;;;;;;;;;;5127142;27;20201;-68
2022/01/02 04:52:49;;;;;;;8.97;6.17;;;;;;;;;;5131014;27;20208;-68
2022/01/02 04:55:18;;;;;;;12.97;6.60;;;;;;;;;;5129118;27;20200;-69
2022/01/02 04:57:46;;;;;;;10.33;7.20;;;;;;;;;;5130204;27;20250;-68
2022/01/02 05:00:15;;;;;;;8.13;6.23;;;;;;;;;;5128803;27;20213;-68
2022/01/02 05:02:42;;;;;;;10.23;6.73;;;;;;;;;;5129757;27;20249;-68
2022/01/02 05:05:11;;;;;;;9.10;6.27;;;;;;;;;;5127708;27;20193;-68
2022/01/02 05:07:39;;;;;;;10.87;7.70;;;;;;;;;;5129014;27;20253;-68
2022/01/02 05:10:07;;;;;;;9.03;6.67;;;;;;;;;;5149507;27;20204;-68
2022/01/02 05:12:36;;;;;;;9.77;6.60;;;;;;;;;;5134722;27;20559;-68
2022/01/02 05:15:05;;;;;;;8.53;6.50;;;;;;;;;;5138783;27;20207;-68
2022/01/02 05:17:33;;;;;;;10.10;7.20;;;;;;;;;;5138280;27;20714;-68
2022/01/02 05:20:01;;;;;;;10.37;6.90;;;;;;;;;;5147023;27;20279;-68
2022/01/02 05:22:29;;;;;;;10.77;7.00;;;;;;;;;;5126846;27;20228;-68
2022/01/02 05:24:57;;;;;;;10.77;6.60;;;;;;;;;;5138527;27;20208;-68
2022/01/02 05:27:25;;;;;;;10.23;6.97;;;;;;;;;;5138694;27;20223;-68
2022/01/02 05:29:54;;;;;;;8.83;6.17;;;;;;;;;;5138866;28;20204;-68
2022/01/02 05:32:22;;;;;;;9.93;7.13;;;;;;;;;;5138063;28;20562;-68
2022/01/02 05:34:50;;;;;;;9.93;6.83;;;;;;;;;;5136712;28;20208;-68
2022/01/02 05:37:18;;;;;;;9.93;6.63;;;;;;;;;;5126581;28;20259;-68
2022/01/02 05:39:46;;;;;;;9.23;6.17;;;;;;;;;;5138494;28;20208;-68
2022/01/02 05:42:14;;;;;;;8.00;6.67;;;;;;;;;;5135925;28;20238;-68
2022/01/02 05:44:42;;;;;;;8.23;6.20;;;;;;;;;;5127171;28;20200;-68
2022/01/02 05:47:11;;;;;;;8.53;6.43;;;;;;;;;;5137975;28;20244;-68
2022/01/02 05:49:39;;;;;;;8.33;6.30;;;;;;;;;;5133567;28;20193;-68
2022/01/02 05:52:07;;;;;;;7.37;6.37;;;;;;;;;;5127595;28;20201;-68
2022/01/02 05:54:35;;;;;;;8.83;6.80;;;;;;;;;;5138209;28;20204;-68
2022/01/02 05:57:03;;;;;;;8.37;6.10;;;;;;;;;;5142018;27;20607;-68
2022/01/02 05:59:33;;;;;;;9.07;6.33;;;;;;;;;;5138444;28;20212;-69
2022/01/02 06:02:01;;;;;;;9.03;6.20;;;;;;;;;;5138359;27;20200;-68
2022/01/02 06:04:30;;;;;;;7.77;5.20;;;;;;;;;;5142423;27;20239;-68
2022/01/02 06:06:58;;;;;;;7.17;5.60;;;;;;;;;;5142053;27;20699;-68
2022/01/02 06:09:26;;;;;;;6.73;5.33;;;;;;;;;;5130653;27;20211;-68
2022/01/02 06:11:54;;;;;;;9.23;6.47;;;;;;;;;;5138018;27;20283;-69
2022/01/02 06:14:22;;;;;;;7.97;5.57;;;;;;;;;;5131141;27;20211;-69
2022/01/02 06:16:50;;;;;;;8.10;6.07;;;;;;;;;;5140728;27;20254;-68
2022/01/02 06:19:18;;;;;;;7.30;5.67;;;;;;;;;;5141565;27;20207;-68
2022/01/02 06:21:48;;;;;;;6.83;5.20;;;;;;;;;;5160329;27;20225;-68
2022/01/02 06:24:16;;;;;;;7.57;5.57;;;;;;;;;;5149204;27;20224;-69
2022/01/02 06:26:44;;;;;;;6.20;5.37;;;;;;;;;;5143046;27;20226;-68
2022/01/02 06:29:12;;;;;;;7.57;5.70;;;;;;;;;;5144012;27;20207;-68
2022/01/02 06:31:40;;;;;;;6.87;5.67;;;;;;;;;;5142755;27;20660;-68
2022/01/02 06:34:08;;;;;;;7.37;5.90;;;;;;;;;;5141530;27;20266;-68
2022/01/02 06:36:36;;;;;;;7.63;6.07;;;;;;;;;;5139867;27;20309;-68
2022/01/02 06:39:05;;;;;;;8.27;5.13;;;;;;;;;;5141284;27;20200;-68
2022/01/02 06:41:33;;;;;;;7.60;6.37;;;;;;;;;;5143542;27;20199;-68
2022/01/02 06:44:01;;;;;;;7.50;5.70;;;;;;;;;;5140131;27;20212;-68
2022/01/02 06:46:29;;;;;;;8.03;5.80;;;;;;;;;;5141010;27;20220;-68
2022/01/02 06:48:57;;;;;;;8.30;5.87;;;;;;;;;;5139318;27;20228;-68
2022/01/02 06:51:45;;;;;;;8.33;5.77;;;;;;;;;;5139137;27;20569;-68
2022/01/02 06:54:14;;;;;;;6.23;5.13;;;;;;;;;;5141406;27;20199;-68
2022/01/02 06:56:42;;;;;;;6.13;4.87;;;;;;;;;;5137912;27;21013;-68
2022/01/02 06:59:10;;;;;;;6.83;5.07;;;;;;;;;;5140348;27;20207;-68
2022/01/02 07:01:38;;;;;;;7.07;5.53;;;;;;;;;;5142982;27;20196;-68
2022/01/02 07:04:06;;;;;;;6.57;4.93;;;;;;;;;;5138401;27;20219;-68
2022/01/02 07:06:34;;;;;;;8.63;6.40;;;;;;;;;;5130238;27;20258;-68
2022/01/02 07:09:02;;;;;;;7.10;5.50;;;;;;;;;;5136832;27;20201;-68
2022/01/02 07:11:32;;;;;;;7.23;5.47;;;;;;;;;;5141131;27;20197;-68
2022/01/02 07:14:00;;;;;;;7.17;6.13;;;;;;;;;;5136838;27;20200;-68
2022/01/02 07:16:28;;;;;;;6.23;5.10;;;;;;;;;;5140171;27;20348;-68
2022/01/02 07:18:55;;;;;;;6.33;5.23;;;;;;;;;;5135855;27;20222;-68
2022/01/02 07:21:24;;;;;;;5.60;4.97;;;;;;;;;;5139696;27;20200;-68
2022/01/02 07:23:53;;;;;;;7.47;5.43;;;;;;;;;;5135252;27;20220;-70
2022/01/02 07:26:20;;;;;;;7.03;5.27;;;;;;;;;;5139957;27;20223;-68
2022/01/02 07:28:50;;;;;;;7.17;5.80;;;;;;;;;;5141562;27;20196;-68
2022/01/02 07:31:18;;;;;;;6.03;4.80;;;;;;;;;;5159049;27;20208;-68
2022/01/02 07:33:46;;;;;;;6.47;4.97;;;;;;;;;;5161400;27;20200;-68
2022/01/02 07:36:14;;;;;;;6.57;5.00;;;;;;;;;;5161220;27;20219;-68
2022/01/02 07:38:42;;;;;;;5.90;4.93;;;;;;;;;;5161235;27;20203;-68
2022/01/02 07:41:10;;;;;;;7.10;4.90;;;;;;;;;;5141383;27;20557;-68
2022/01/02 07:43:38;;;;;;;6.00;5.20;;;;;;;;;;5135811;27;20624;-68
2022/01/02 07:46:07;;;;;;;7.73;6.43;;;;;;;;;;5138501;27;20227;-67
2022/01/02 07:48:35;;;;;;;8.07;5.40;;;;;;;;;;5140001;27;20244;-64
2022/01/02 07:51:04;;;;;;;5.47;4.97;;;;;;;;;;5138043;27;20197;-64
2022/01/02 07:53:32;;;;;;;5.93;4.67;;;;;;;;;;5126831;27;20652;-64
2022/01/02 07:56:00;;;;;;;7.27;5.40;;;;;;;;;;5135607;27;20797;-64
2022/01/02 07:58:28;;;;;;;6.37;4.93;;;;;;;;;;5133777;27;20257;-64
2022/01/02 08:00:56;;;;;;;8.27;5.83;;;;;;;;;;5140689;27;20207;-63
2022/01/02 08:03:26;;;;;;;6.57;5.63;;;;;;;;;;5136945;27;20251;-63
2022/01/02 08:05:54;;;;;;;10.80;7.70;;;;;;;;;;5131196;27;20220;-63
2022/01/02 08:08:22;;;;;;;8.33;6.87;;;;;;;;;;5136551;27;20208;-63
2022/01/02 08:10:50;;;;;;;7.23;5.63;;;;;;;;;;5137739;27;20200;-63
2022/01/02 08:13:18;;;;;;;7.43;6.53;;;;;;;;;;5136833;27;20207;-63
2022/01/02 08:15:48;;;;;;;10.10;6.10;;;;;;;;;;5135241;27;20196;-64
2022/01/02 08:18:16;;;;;;;8.80;6.17;;;;;;;;;;5136924;27;20200;-64
2022/01/02 08:20:46;;;;;;;7.33;6.03;;;;;;;;;;5135055;27;20677;-63
2022/01/02 08:23:14;;;;;;;6.10;5.50;;;;;;;;;;5133850;27;20210;-70
2022/01/02 08:25:42;;;;;;;6.10;4.90;;;;;;;;;;5132332;27;20193;-69
2022/01/02 08:28:11;;;;;;;7.23;6.00;;;;;;;;;;5134643;27;20210;-69
2022/01/02 08:30:41;;;;;;;8.10;5.50;;;;;;;;;;5135359;27;20210;-70
2022/01/02 08:33:10;;;;;;;6.67;5.70;;;;;;;;;;5133849;27;20674;-69
2022/01/02 08:35:38;;;;;;;7.80;6.10;;;;;;;;;;5136135;27;20945;-69
2022/01/02 08:38:07;;;;;;;5.40;4.87;;;;;;;;;;5137033;27;20651;-69
2022/01/02 08:40:35;;;;;;;6.87;5.77;;;;;;;;;;5134148;27;20204;-69
2022/01/02 08:43:03;;;;;;;7.73;6.20;;;;;;;;;;5130869;27;20201;-69
2022/01/02 08:45:31;;;;;;;5.83;5.23;;;;;;;;;;5130361;27;20238;-69
2022/01/02 08:47:59;;;;;;;11.40;6.70;;;;;;;;;;5136618;27;20228;-69
2022/01/02 08:50:27;;;;;;;9.97;7.97;;;;;;;;;;5132623;27;20196;-69
2022/01/02 08:52:55;;;;;;;11.63;7.93;;;;;;;;;;5132651;27;20202;-69
2022/01/02 08:55:25;;;;;;;9.57;7.73;;;;;;;;;;5131370;27;20204;-69
2022/01/02 08:57:53;;;;;;;11.73;9.30;;;;;;;;;;5133262;27;20217;-69
2022/01/02 09:00:21;;;;;;;15.47;10.20;;;;;;;;;;5143924;27;20230;-68
2022/01/02 09:02:49;;;;;;;15.17;11.50;;;;;;;;;;5142350;27;20213;-68
2022/01/02 09:05:17;;;;;;;17.47;11.00;;;;;;;;;;5138493;27;20972;-69
2022/01/02 09:07:44;;;;;;;17.83;10.80;;;;;;;;;;5144742;27;20215;-70
2022/01/02 09:10:14;;;;;;;9.67;7.80;;;;;;;;;;5141123;27;20192;-71
2022/01/02 09:12:43;;;;;;;8.90;7.20;;;;;;;;;;5135258;27;20208;-70
2022/01/02 09:15:11;;;;;;;8.20;6.23;;;;;;;;;;5136887;27;20279;-71
2022/01/02 09:17:39;;;;;;;10.27;6.63;;;;;;;;;;5129999;27;20224;-71
2022/01/02 09:20:08;;;;;;;6.63;5.80;;;;;;;;;;5135433;27;20202;-70
2022/01/02 09:22:37;;;;;;;7.13;6.03;;;;;;;;;;5135156;27;20206;-70
2022/01/02 09:25:06;;;;;;;6.97;5.53;;;;;;;;;;5125698;27;20215;-71
2022/01/02 09:27:35;;;;;;;8.60;7.13;;;;;;;;;;5136328;27;20216;-70
2022/01/02 09:30:06;;;;;;;8.23;6.47;;;;;;;;;;5135678;27;20213;-70
2022/01/02 09:32:34;;;;;;;6.77;5.60;;;;;;;;;;5136411;28;20196;-70
2022/01/02 09:35:05;;;;;;;6.00;5.40;;;;;;;;;;5133158;28;20651;-70
2022/01/02 09:37:34;;;;;;;5.67;5.17;;;;;;;;;;5135349;27;20831;-71
2022/01/02 09:40:02;;;;;;;7.37;5.33;;;;;;;;;;5137891;27;20204;-71
2022/01/02 09:42:30;;;;;;;6.20;5.43;;;;;;;;;;5140492;27;20200;-70
2022/01/02 09:44:58;;;;;;;5.77;4.37;;;;;;;;;;5138987;27;20216;-71
2022/01/02 09:47:27;;;;;;;6.67;5.87;;;;;;;;;;5135058;27;20339;-71
2022/01/02 09:49:56;;;;;;;5.73;5.03;;;;;;;;;;5140498;27;20196;-71
2022/01/02 09:52:24;;;;;;;6.80;5.43;;;;;;;;;;5137376;27;20571;-71
2022/01/02 09:54:52;;;;;;;6.67;4.87;;;;;;;;;;5129969;27;20570;-71
2022/01/02 09:57:21;;;;;;;6.53;5.83;;;;;;;;;;5141445;27;20261;-71
2022/01/02 09:59:48;;;;;;;6.03;4.97;;;;;;;;;;5141619;27;20661;-71
2022/01/02 10:02:16;;;;;;;6.53;5.57;;;;;;;;;;5139342;27;20268;-70
2022/01/02 10:04:46;;;;;;;6.27;5.43;;;;;;;;;;5140232;27;20231;-71
2022/01/02 10:07:29;;;;;;;8.73;5.97;;;;;;;;;;5136935;27;20716;-71
2022/01/02 10:09:57;;;;;;;7.67;6.03;;;;;;;;;;5143501;27;20200;-69
2022/01/02 10:12:26;;;;;;;7.20;5.37;;;;;;;;;;5149665;27;20666;-71
2022/01/02 10:15:09;;;;;;;6.93;5.53;;;;;;;;;;5128671;27;20204;-70
2022/01/02 10:17:51;;;;;;;5.40;4.83;;;;;;;;;;5137082;27;20232;-70
2022/01/02 10:20:21;;;;;;;6.93;5.83;;;;;;;;;;5140231;27;20204;-75
2022/01/02 10:23:09;;;;;;;8.50;5.90;;;;;;;;;;5140456;27;20208;-75
2022/01/02 10:25:38;;;;;;;6.00;5.23;;;;;;;;;;5140626;27;20228;-70
2022/01/02 10:28:26;;;;;;;5.97;5.03;;;;;;;;;;5130868;27;20200;-70
2022/01/02 10:30:55;;;;;;;5.47;4.87;;;;;;;;;;5140599;27;20235;-71
2022/01/02 10:33:23;;;;;;;6.47;5.60;;;;;;;;;;5140292;27;20192;-71
2022/01/02 10:35:59;;;;;;;5.80;5.13;;;;;;;;;;5150175;27;20216;-68
2022/01/02 10:38:27;;;;;;;8.10;5.53;;;;;;;;;;5149578;27;20200;-70
2022/01/02 10:40:55;;;;;;;7.07;5.70;;;;;;;;;;5145820;27;20653;-71
2022/01/02 10:43:25;;;;;;;6.30;5.23;;;;;;;;;;5141938;27;20207;-70
2022/01/02 10:45:53;;;;;;;6.53;5.33;;;;;;;;;;5142913;27;20230;-70
2022/01/02 10:48:31;;;;;;;6.27;5.17;;;;;;;;;;5149864;27;20235;-70
2022/01/02 10:51:01;;;;;;;5.00;4.50;;;;;;;;;;5139439;27;20199;-70
2022/01/02 10:53:30;;;;;;;6.20;5.20;;;;;;;;;;5137084;27;20208;-71
2022/01/02 10:55:59;;;;;;;5.97;5.23;;;;;;;;;;5149251;27;20577;-70
2022/01/02 10:58:27;;;;;;;6.13;5.30;;;;;;;;;;5142506;27;20204;-70
2022/01/02 11:00:57;;;;;;;6.70;5.43;;;;;;;;;;5146050;27;20191;-71
2022/01/02 11:03:25;;;;;;;7.37;5.30;;;;;;;;;;5145220;27;20196;-69
2022/01/02 11:05:57;;;;;;;8.43;5.43;;;;;;;;;;5143926;27;20228;-70
2022/01/02 11:08:28;;;;;;;5.93;4.83;;;;;;;;;;5138441;27;20196;-70
2022/01/02 11:10:56;;;;;;;5.57;4.90;;;;;;;;;;5139580;27;20201;-67
2022/01/02 11:13:24;;;;;;;5.23;4.50;;;;;;;;;;5130324;27;20204;-71
2022/01/02 11:15:54;;;;;;;6.87;5.33;;;;;;;;;;5131782;27;20230;-68
2022/01/02 11:18:22;;;;;;;5.83;5.07;;;;;;;;;;5140329;27;20200;-71
2022/01/02 11:20:50;;;;;;;6.23;5.20;;;;;;;;;;5127449;27;20863;-69
2022/01/02 11:23:22;;;;;;;5.53;4.97;;;;;;;;;;5135514;27;20223;-70
2022/01/02 11:26:03;;;;;;;6.03;4.80;;;;;;;;;;5143148;27;20288;-70
2022/01/02 11:28:35;;;;;;;6.23;4.87;;;;;;;;;;5143787;27;20654;-70
2022/01/02 11:31:04;;;;;;;5.63;5.00;;;;;;;;;;5146732;27;20209;-71
2022/01/02 11:33:34;;;;;;;6.63;4.43;;;;;;;;;;5144980;27;20552;-71
2022/01/02 11:36:03;;;;;;;6.03;5.30;;;;;;;;;;5145713;27;20215;-71
2022/01/02 11:38:42;;;;;;;6.20;5.33;;;;;;;;;;5146938;27;20204;-71
2022/01/02 11:41:16;;;;;;;6.33;4.57;;;;;;;;;;5138808;27;20195;-70
2022/01/02 11:43:53;;;;;;;6.03;4.60;;;;;;;;;;5140347;27;20196;-70
2022/01/02 11:46:23;;;;;;;6.07;5.23;;;;;;;;;;5142423;27;20228;-71
2022/01/02 11:49:13;;;;;;;6.10;5.27;;;;;;;;;;5137772;27;20223;-70
2022/01/02 11:51:57;;;;;;;5.60;4.63;;;;;;;;;;5140620;27;20637;-70
2022/01/02 11:54:46;;;;;;;5.43;4.70;;;;;;;;;;5142883;27;20228;-72
2022/01/02 11:57:32;;;;;;;5.90;5.30;;;;;;;;;;5136432;27;20207;-71
2022/01/02 12:00:02;;;;;;;5.90;4.90;;;;;;;;;;5141477;27;20293;-71
2022/01/02 12:02:37;;;;;;;6.63;5.20;;;;;;;;;;5144929;27;20193;-70
2022/01/02 12:05:12;;;;;;;5.93;4.63;;;;;;;;;;5139946;27;20227;-70
2022/01/02 12:07:58;;;;;;;7.40;5.60;;;;;;;;;;5145069;27;20303;-68
2022/01/02 12:10:30;;;;;;;8.17;4.80;;;;;;;;;;5143982;27;20654;-69
2022/01/02 12:13:13;;;;;;;6.23;4.97;;;;;;;;;;5145344;27;20303;-69
2022/01/02 12:16:01;;;;;;;7.10;6.27;;;;;;;;;;5135188;27;20195;-70
2022/01/02 12:18:33;;;;;;;6.57;5.17;;;;;;;;;;5121772;27;20264;-69
2022/01/02 12:21:11;;;;;;;6.27;5.47;;;;;;;;;;5123432;27;20347;-69
2022/01/02 12:23:55;;;;;;;5.47;4.57;;;;;;;;;;5130863;27;20203;-69
2022/01/02 12:26:30;;;;;;;7.37;5.37;;;;;;;;;;5125739;27;20234;-69
2022/01/02 12:29:01;;;;;;;6.73;5.00;;;;;;;;;;5127484;27;20224;-68
2022/01/02 12:31:31;;;;;;;6.33;5.70;;;;;;;;;;5127027;27;20206;-69
2022/01/02 12:34:08;;;;;;;7.40;5.63;;;;;;;;;;5134879;27;20196;-69
2022/01/02 12:36:36;;;;;;;7.13;5.17;;;;;;;;;;5129745;27;20220;-68
2022/01/02 12:39:05;;;;;;;5.97;5.37;;;;;;;;;;5130797;27;20558;-68
2022/01/02 12:41:33;;;;;;;6.90;5.77;;;;;;;;;;5138195;27;20200;-67
2022/01/02 12:44:02;;;;;;;7.00;5.43;;;;;;;;;;5137502;27;20202;-68
2022/01/02 12:46:34;;;;;;;7.33;5.40;;;;;;;;;;5126150;27;20224;-70
2022/01/02 12:49:03;;;;;;;5.97;4.67;;;;;;;;;;5142823;27;20774;-67
2022/01/02 12:51:34;;;;;;;5.97;5.33;;;;;;;;;;5140425;27;20223;-67
2022/01/02 12:54:03;;;;;;;6.30;4.67;;;;;;;;;;5145651;27;20650;-69
2022/01/02 12:56:32;;;;;;;5.70;5.20;;;;;;;;;;5143147;27;20216;-68
2022/01/02 12:59:16;;;;;;;7.10;5.40;;;;;;;;;;5146023;27;20678;-70
2022/01/02 13:02:01;;;;;;;8.37;4.93;;;;;;;;;;5141413;27;20235;-70
2022/01/02 13:04:30;;;;;;;4.57;4.17;;;;;;;;;;5144100;27;20228;-70
2022/01/02 13:07:01;;;;;;;5.77;4.73;;;;;;;;;;5142240;27;20346;-71
2022/01/02 13:09:33;;;;;;;8.20;5.30;;;;;;;;;;5144202;27;20196;-69
2022/01/02 13:12:03;;;;;;;5.33;4.40;;;;;;;;;;5143294;27;20211;-68
2022/01/02 13:14:35;;;;;;;6.00;5.10;;;;;;;;;;5137860;27;20210;-67
2022/01/02 13:17:04;;;;;;;6.77;5.10;;;;;;;;;;5135488;27;20246;-67
2022/01/02 13:19:33;;;;;;;8.20;5.43;;;;;;;;;;5133315;27;20218;-67
2022/01/02 13:22:03;;;;;;;8.30;6.40;;;;;;;;;;5133553;27;20200;-68
2022/01/02 13:24:34;;;;;;;8.23;5.83;;;;;;;;;;5125272;27;20201;-66
2022/01/02 13:27:03;;;;;;;9.07;6.40;;;;;;;;;;5134521;27;20227;-66
2022/01/02 13:29:31;;;;;;;7.10;5.43;;;;;;;;;;5131020;27;20242;-66
2022/01/02 13:32:11;;;;;;;5.93;4.90;;;;;;;;;;5134794;27;20207;-66
2022/01/02 13:34:39;;;;;;;6.40;5.03;;;;;;;;;;5119996;28;20204;-66
2022/01/02 13:37:08;;;;;;;14.50;4.90;;;;;;;;;;5131365;28;20222;-66
2022/01/02 13:39:46;;;;;;;7.87;4.90;;;;;;;;;;5125259;28;20669;-67
2022/01/02 13:42:15;;;;;;;5.77;4.70;;;;;;;;;;5135693;28;20204;-67
2022/01/02 13:44:44;;;;;;;7.30;5.00;;;;;;;;;;5136054;28;20196;-67
2022/01/02 13:47:12;;;;;;;6.37;4.93;;;;;;;;;;5131947;28;20228;-67
2022/01/02 13:49:45;;;;;;;7.53;5.80;;;;;;;;;;5130175;28;20204;-67
2022/01/02 13:52:14;;;;;;;6.43;5.33;;;;;;;;;;5130890;28;20249;-67
2022/01/02 13:54:44;;;;;;;7.53;5.50;;;;;;;;;;5135986;28;20200;-67
2022/01/02 13:57:12;;;;;;;5.90;5.20;;;;;;;;;;5135563;27;20212;-67
2022/01/02 13:59:40;;;;;;;6.77;5.27;;;;;;;;;;5126542;28;20280;-68
2022/01/02 14:02:08;;;;;;;8.00;5.87;;;;;;;;;;5132745;28;20281;-67
2022/01/02 14:04:52;;;;;;;6.07;4.07;;;;;;;;;;5127536;28;20209;-68
2022/01/02 14:07:22;;;;;;;7.23;5.33;;;;;;;;;;5126900;28;20578;-67
2022/01/02 14:09:52;;;;;;;4.70;4.27;;;;;;;;;;5135764;28;20196;-68
2022/01/02 14:12:24;;;;;;;6.43;5.13;;;;;;;;;;5126469;28;20668;-68
2022/01/02 14:15:01;;;;;;;5.93;4.77;;;;;;;;;;5135770;28;20204;-68
2022/01/02 14:17:33;;;;;;;5.57;4.77;;;;;;;;;;5126071;28;20227;-68
2022/01/02 14:20:03;;;;;;;5.90;4.47;;;;;;;;;;5137853;27;20287;-68
2022/01/02 14:22:36;;;;;;;5.73;4.77;;;;;;;;;;5132589;28;20200;-68
2022/01/02 14:25:05;;;;;;;6.43;4.43;;;;;;;;;;5134666;27;20211;-67
2022/01/02 14:27:33;;;;;;;5.57;4.63;;;;;;;;;;5138746;27;20590;-68
2022/01/02 14:30:01;;;;;;;6.50;5.30;;;;;;;;;;5139835;27;20192;-68
2022/01/02 14:32:29;;;;;;;8.93;7.07;;;;;;;;;;5130666;27;20252;-68
2022/01/02 14:34:57;;;;;;;7.67;6.37;;;;;;;;;;5131575;27;20327;-68
2022/01/02 14:37:25;;;;;;;10.93;7.57;;;;;;;;;;5136122;27;20224;-68
2022/01/02 14:39:55;;;;;;;9.07;7.47;;;;;;;;;;5142966;27;20555;-68
2022/01/02 14:42:23;;;;;;;9.47;7.03;;;;;;;;;;5136111;27;20211;-68
2022/01/02 14:44:51;;;;;;;15.13;11.30;;;;;;;;;;5139070;27;20203;-68
2022/01/02 14:47:34;;;;;;;17.50;13.20;;;;;;;;;;5129804;27;20232;-68
2022/01/02 14:50:03;;;;;;;13.57;9.33;;;;;;;;;;5138906;27;20196;-68
2022/01/02 14:52:34;;;;;;;10.57;8.27;;;;;;;;;;5136101;27;20205;-68
2022/01/02 14:55:04;;;;;;;9.57;8.10;;;;;;;;;;5144334;27;20314;-68
2022/01/02 14:57:32;;;;;;;10.27;7.17;;;;;;;;;;5136534;27;20248;-68